createdAt,value
2022-10-14T00:00:23.809Z,11.50
2022-10-14T00:05:46.468Z,11.70
2022-10-14T00:10:49.126Z,12.90
2022-10-14T00:15:51.811Z,11.90
2022-10-14T00:20:58.977Z,12.40
2022-10-14T00:26:01.645Z,11.80
2022-10-14T00:31:04.396Z,11.10
2022-10-14T00:36:08.940Z,11.40
2022-10-14T00:41:13.902Z,11.40
2022-10-14T00:46:16.564Z,11.70
2022-10-14T00:51:20.220Z,10.60
2022-10-14T00:56:26.227Z,11.20
2022-10-14T01:01:28.927Z,11.50
2022-10-14T01:06:43.171Z,11.60
2022-10-14T01:12:26.792Z,11.10
2022-10-14T01:17:37.999Z,11.30
2022-10-14T01:23:08.745Z,10.90
2022-10-14T01:28:46.180Z,12.20
2022-10-14T01:33:54.672Z,12.00
2022-10-14T01:39:02.899Z,11.50
2022-10-14T01:44:10.762Z,12.00
2022-10-14T01:49:21.235Z,11.40
2022-10-14T01:54:34.452Z,11.50
2022-10-14T01:59:39.821Z,11.30
2022-10-14T02:04:42.596Z,12.30
2022-10-14T02:09:55.599Z,12.10
2022-10-14T02:15:32.480Z,12.60
2022-10-14T02:20:42.548Z,11.50
2022-10-14T02:25:47.955Z,12.90
2022-10-14T02:30:55.049Z,12.60
2022-10-14T02:35:58.105Z,16.30
2022-10-14T02:41:04.461Z,14.20
2022-10-14T02:46:07.390Z,15.10
2022-10-14T02:51:10.100Z,15.80
2022-10-14T02:56:14.304Z,12.80
2022-10-14T03:01:17.149Z,11.50
2022-10-14T03:06:19.912Z,13.10
2022-10-14T03:11:22.577Z,12.70
2022-10-14T03:16:25.272Z,12.20
2022-10-14T03:21:28.454Z,12.10
2022-10-14T03:26:33.804Z,12.10
2022-10-14T03:31:36.518Z,11.40
2022-10-14T03:36:39.232Z,12.10
2022-10-14T03:41:41.938Z,12.70
2022-10-14T03:46:44.614Z,12.60
2022-10-14T03:51:47.296Z,14.10
2022-10-14T03:56:50.947Z,13.00
2022-10-14T04:01:53.961Z,19.10
2022-10-14T04:06:57.971Z,20.70
2022-10-14T04:12:00.658Z,15.00
2022-10-14T04:17:03.412Z,14.30
2022-10-14T04:22:06.193Z,13.70
2022-10-14T04:27:09.068Z,17.60
2022-10-14T04:32:12.299Z,16.20
2022-10-14T04:37:15.217Z,13.50
2022-10-14T04:42:17.882Z,14.10
2022-10-14T04:47:20.588Z,13.90
2022-10-14T04:52:25.954Z,13.80
2022-10-14T04:57:28.651Z,14.00
2022-10-14T05:02:34.278Z,14.10
2022-10-14T05:07:37.692Z,14.70
2022-10-14T05:12:40.496Z,14.80
2022-10-14T05:17:51.161Z,14.20
2022-10-14T05:22:53.890Z,15.10
2022-10-14T05:28:00.022Z,14.30
2022-10-14T05:33:03.007Z,14.60
2022-10-14T05:38:06.035Z,15.30
2022-10-14T05:43:08.857Z,15.90
2022-10-14T05:48:11.510Z,15.30
2022-10-14T05:53:14.170Z,16.40
2022-10-14T05:58:16.875Z,14.70
2022-10-14T06:03:19.825Z,16.50
2022-10-14T06:08:23.632Z,22.30
2022-10-14T06:13:26.465Z,17.00
2022-10-14T06:18:29.518Z,15.90
2022-10-14T06:23:32.972Z,14.90
2022-10-14T06:28:36.593Z,16.00
2022-10-14T06:33:39.600Z,15.10
2022-10-14T06:38:42.321Z,15.80
2022-10-14T06:43:45.790Z,16.10
2022-10-14T06:48:50.441Z,14.60
2022-10-14T06:53:53.384Z,15.40
2022-10-14T06:58:56.900Z,14.50
2022-10-14T07:04:00.135Z,16.90
2022-10-14T07:09:03.566Z,15.90
2022-10-14T07:14:06.245Z,15.80
2022-10-14T07:19:08.900Z,15.40
2022-10-14T07:24:11.803Z,16.00
2022-10-14T07:29:14.645Z,16.30
2022-10-14T07:34:17.341Z,16.90
2022-10-14T07:39:20.290Z,19.70
2022-10-14T07:44:26.461Z,20.40
2022-10-14T07:49:30.990Z,17.70
2022-10-14T07:54:38.889Z,17.60
2022-10-14T07:59:44.048Z,17.60
2022-10-14T08:04:47.332Z,17.40
2022-10-14T08:09:50.160Z,16.30
2022-10-14T08:14:57.608Z,16.70
2022-10-14T08:20:04.538Z,16.50
2022-10-14T08:25:07.704Z,16.80
2022-10-14T08:30:11.758Z,17.70
2022-10-14T08:35:18.342Z,16.60
2022-10-14T08:40:24.643Z,17.50
2022-10-14T08:45:35.862Z,16.70
2022-10-14T08:50:39.371Z,16.70
2022-10-14T08:55:53.337Z,17.90
2022-10-14T09:00:58.324Z,17.70
2022-10-14T09:06:08.041Z,16.80
2022-10-14T09:11:15.133Z,19.10
2022-10-14T09:16:25.330Z,17.80
2022-10-14T09:21:52.543Z,18.90
2022-10-14T09:27:04.218Z,19.20
2022-10-14T09:32:16.888Z,19.60
2022-10-14T09:37:28.324Z,18.40
2022-10-14T09:42:51.570Z,20.60
2022-10-14T09:47:56.411Z,20.80
2022-10-14T09:53:18.855Z,18.60
2022-10-14T09:58:36.423Z,20.70
2022-10-14T10:03:41.158Z,20.90
2022-10-14T10:08:53.463Z,26.60
2022-10-14T10:13:56.227Z,25.10
2022-10-14T10:19:20.294Z,20.20
2022-10-14T10:24:28.760Z,20.90
2022-10-14T10:29:35.565Z,20.90
2022-10-14T10:34:43.328Z,20.90
2022-10-14T10:40:21.087Z,18.90
2022-10-14T10:45:45.831Z,21.80
2022-10-14T10:50:59.362Z,20.50
2022-10-14T10:56:02.373Z,21.20
2022-10-14T11:01:17.628Z,20.90
2022-10-14T11:07:03.959Z,21.40
2022-10-14T11:12:23.210Z,20.80
2022-10-14T11:17:41.392Z,21.10
2022-10-14T11:23:26.036Z,19.40
2022-10-14T11:28:44.079Z,17.90
2022-10-14T11:34:08.745Z,15.60
2022-10-14T11:39:39.459Z,15.50
2022-10-14T11:44:44.293Z,18.90
2022-10-14T11:50:13.971Z,19.60
2022-10-14T11:55:23.601Z,18.90
2022-10-14T12:00:53.604Z,18.30
2022-10-14T12:06:17.779Z,19.80
2022-10-14T12:11:20.454Z,18.80
2022-10-14T12:16:26.036Z,18.90
2022-10-14T12:21:52.724Z,18.50
2022-10-14T12:26:56.930Z,19.90
2022-10-14T12:32:21.224Z,20.30
2022-10-14T12:37:28.963Z,20.40
2022-10-14T12:42:51.236Z,19.30
2022-10-14T12:48:07.636Z,19.30
2022-10-14T12:53:16.452Z,18.70
2022-10-14T12:58:30.507Z,19.60
2022-10-14T13:03:42.538Z,18.80
2022-10-14T13:09:11.727Z,18.50
2022-10-14T13:14:25.658Z,18.70
2022-10-14T13:19:34.483Z,20.10
2022-10-14T13:24:43.764Z,20.80
2022-10-14T13:30:09.560Z,21.60
2022-10-14T13:35:17.916Z,32.50
2022-10-14T13:40:27.489Z,22.10
2022-10-14T13:45:44.291Z,22.00
2022-10-14T13:50:50.984Z,20.90
2022-10-14T13:55:54.777Z,26.00
2022-10-14T14:00:58.177Z,34.10
2022-10-14T14:06:03.248Z,29.20
2022-10-14T14:11:17.414Z,30.40
2022-10-14T14:16:24.572Z,28.20
2022-10-14T14:21:28.600Z,22.00
2022-10-14T14:26:38.262Z,21.00
2022-10-14T14:32:05.582Z,20.00
2022-10-14T14:37:34.309Z,21.30
2022-10-14T14:42:33.113Z,24.30
2022-10-14T14:47:35.993Z,23.50
2022-10-14T14:52:40.086Z,23.70
2022-10-14T14:57:42.827Z,27.80
2022-10-14T15:02:59.692Z,39.30
2022-10-14T15:08:03.311Z,27.40
2022-10-14T15:13:27.156Z,31.70
2022-10-14T15:18:45.459Z,33.20
2022-10-14T15:23:52.978Z,26.50
2022-10-14T15:29:07.797Z,30.40
2022-10-14T15:34:18.548Z,31.20
2022-10-14T15:39:22.226Z,33.30
2022-10-14T15:44:24.935Z,28.70
2022-10-14T15:49:31.140Z,29.90
2022-10-14T15:54:33.988Z,25.50
2022-10-14T15:59:37.138Z,25.00
2022-10-14T16:05:00.624Z,35.30
2022-10-14T16:10:03.495Z,38.30
2022-10-14T16:15:34.078Z,29.30
2022-10-14T16:20:37.017Z,30.20
2022-10-14T16:25:44.554Z,27.90
2022-10-14T16:30:49.414Z,32.00
2022-10-14T16:35:54.718Z,29.90
2022-10-14T16:41:00.095Z,34.10
2022-10-14T16:46:05.833Z,36.30
2022-10-14T16:51:09.113Z,53.20
2022-10-14T16:56:37.260Z,44.30
2022-10-14T17:01:40.107Z,40.20
2022-10-14T17:06:43.051Z,36.90
2022-10-14T17:11:46.909Z,35.00
2022-10-14T17:16:52.565Z,32.00
2022-10-14T17:21:55.478Z,32.20
2022-10-14T17:26:58.827Z,35.00
2022-10-14T17:32:01.740Z,39.00
2022-10-14T17:37:05.541Z,39.00
2022-10-14T17:42:08.384Z,44.90
2022-10-14T17:47:11.477Z,51.40
2022-10-14T17:52:14.248Z,42.90
2022-10-14T17:57:16.932Z,35.40
2022-10-14T18:02:21.128Z,34.20
2022-10-14T18:07:24.439Z,39.50
2022-10-14T18:12:27.764Z,34.80
2022-10-14T18:17:30.719Z,34.00
2022-10-14T18:22:33.669Z,30.40
2022-10-14T18:27:36.434Z,32.10
2022-10-14T18:32:39.146Z,34.30
2022-10-14T18:37:41.838Z,34.20
2022-10-14T18:42:44.792Z,36.00
2022-10-14T18:47:47.461Z,32.70
2022-10-14T18:52:50.949Z,32.20
2022-10-14T18:57:53.939Z,32.70
2022-10-14T19:02:57.017Z,33.50
2022-10-14T19:08:00.596Z,31.70
2022-10-14T19:13:04.454Z,35.20
2022-10-14T19:18:07.548Z,37.90
2022-10-14T19:23:10.369Z,44.30
2022-10-14T19:28:13.055Z,39.00
2022-10-14T19:33:15.734Z,48.40
2022-10-14T19:38:18.454Z,40.40
2022-10-14T19:43:21.332Z,39.90
2022-10-14T19:48:24.056Z,46.20
2022-10-14T19:53:26.898Z,39.00
2022-10-14T19:58:29.871Z,36.10
2022-10-14T20:03:32.595Z,37.90
2022-10-14T20:08:36.204Z,35.80
2022-10-14T20:13:40.269Z,33.20
2022-10-14T20:18:43.810Z,32.90
2022-10-14T20:23:47.688Z,31.30
2022-10-14T20:28:51.242Z,30.60
2022-10-14T20:33:56.654Z,34.00
2022-10-14T20:38:59.718Z,33.30
2022-10-14T20:44:02.425Z,31.90
2022-10-14T20:49:05.297Z,33.50
2022-10-14T20:54:11.723Z,34.10
2022-10-14T21:04:17.697Z,33.00
2022-10-14T21:09:20.888Z,32.70
2022-10-14T21:14:23.771Z,32.90
2022-10-14T21:19:26.565Z,34.00
2022-10-14T21:24:29.680Z,32.60
2022-10-14T21:29:32.515Z,32.50
2022-10-14T21:34:35.173Z,32.30
2022-10-14T21:39:37.861Z,34.50
2022-10-14T21:44:40.559Z,32.30
2022-10-14T21:49:43.256Z,32.90
2022-10-14T21:54:45.980Z,32.20
2022-10-14T21:59:48.697Z,33.10
2022-10-14T22:04:51.385Z,33.00
2022-10-14T22:09:54.056Z,33.00
2022-10-14T22:14:56.802Z,31.40
2022-10-14T22:19:59.523Z,32.20
2022-10-14T22:25:02.199Z,30.50
2022-10-14T22:30:05.730Z,29.80
2022-10-14T22:35:08.977Z,32.10
2022-10-14T22:40:11.764Z,31.50
2022-10-14T22:45:14.511Z,30.60
2022-10-14T22:50:17.229Z,31.40
2022-10-14T22:55:19.926Z,30.80
2022-10-14T23:00:22.599Z,30.00
2022-10-14T23:05:25.294Z,30.20
2022-10-14T23:10:28.069Z,32.80
2022-10-14T23:15:30.812Z,31.40
2022-10-14T23:20:35.298Z,31.90
2022-10-14T23:25:40.836Z,31.30
2022-10-14T23:30:43.557Z,29.70
2022-10-14T23:35:46.248Z,32.10
2022-10-14T23:40:48.928Z,30.10
2022-10-14T23:50:59.881Z,31.50
2022-10-14T23:56:02.938Z,30.90
